»·PEaware :: N22G KEUG-KBOI

N22G :: KEUG-KBOI

FLIGHT INFORMATION

Flight Status: Arrived
Operator: Privately registered:
United States
More flights under this callsign
Pilot: Ryan L. (28399)
Aircraft: CESSNA 510 CITATION MUSTANG
(C510)
More flights by this aircraft type
Origin: KEUG Mahlon Sweet
United States
Destination: KBOI Boise Air Terminal/Gowen
United States
More flights between these airports :: More routes between these airports
Route: +EUG1 EUG COBUR HOSTS PARMO3
File this flight plan on PilotEdge
Remarks:
Altitude:
(Current/Filed)
35,000ft
Speed:
(Current/Filed)
285kts
Departed: 14-May-20 02:00 PM
Arrived: 14-May-20 03:00 PM
Distance/Time
Traveled:
304nm/1:00
Distance/Time
To Go:
Arrived

Flight Plot

Page will automatically refresh every two minutes.


Map Options




Map Legend


Flown Route
Filed Route
Departure Airport
Arrival Airport
Navaid (VOR, NDB)
Fix

Horizontal Profiles

Position Reports

Time Latitude Longitude Heading Altitude Ground
Speed
14-May-20 13:36 44.122553 -123.211601 302 368ft 0kts
14-May-20 13:37 44.122553 -123.211601 302 368ft 0kts
14-May-20 13:38 44.122553 -123.211601 302 368ft 0kts
14-May-20 13:39 44.122553 -123.211601 302 368ft 0kts
14-May-20 13:40 44.122553 -123.211601 302 368ft 0kts
14-May-20 13:41 44.122553 -123.211601 302 368ft 0kts
14-May-20 13:41 44.122553 -123.211601 302 368ft 0kts
14-May-20 13:43 44.122553 -123.211601 302 368ft 0kts
14-May-20 13:44 44.122553 -123.211601 302 368ft 0kts
14-May-20 13:44 44.122553 -123.211601 302 368ft 0kts
14-May-20 13:46 44.122553 -123.211601 302 368ft 0kts
14-May-20 13:46 44.122553 -123.211601 302 368ft 0kts
14-May-20 13:47 44.122553 -123.211601 302 368ft 0kts
14-May-20 13:48 44.122553 -123.211601 302 368ft 0kts
14-May-20 13:49 44.122553 -123.211601 302 368ft 0kts
14-May-20 13:50 44.122553 -123.211601 302 368ft 0kts
14-May-20 13:51 44.122553 -123.211601 302 368ft 0kts
14-May-20 13:52 44.122553 -123.211601 302 368ft 0kts
14-May-20 13:53 44.122553 -123.211601 302 368ft 0kts
14-May-20 13:54 44.122219 -123.212902 214 369ft 9kts
14-May-20 13:55 44.122063 -123.214996 329 370ft 12kts
14-May-20 13:56 44.126930 -123.217102 359 367ft 27kts
14-May-20 13:57 44.134405 -123.217227 359 363ft 18kts
14-May-20 13:58 44.135311 -123.218009 271 363ft 18kts
14-May-20 13:59 44.110324 -123.218661 179 1055ft 155kts
14-May-20 14:00 44.061936 -123.198639 109 3423ft 218kts
14-May-20 14:01 44.093222 -123.137419 44 6332ft 232kts
14-May-20 14:02 44.134678 -123.087668 39 9105ft 232kts
14-May-20 14:03 44.168107 -123.046900 55 10007ft 300kts
14-May-20 14:04 44.191796 -122.966832 71 10005ft 347kts
14-May-20 14:05 44.214038 -122.884642 71 10516ft 341kts
14-May-20 14:06 44.243391 -122.775756 70 12880ft 336kts
14-May-20 14:07 44.273564 -122.664197 70 14817ft 345kts
14-May-20 14:08 44.309160 -122.531986 70 17005ft 353kts
14-May-20 14:09 44.346992 -122.390640 69 19264ft 358kts
14-May-20 14:10 44.375459 -122.274196 88 20985ft 361kts
14-May-20 14:11 44.365167 -122.168115 104 22469ft 359kts
14-May-20 14:12 44.348882 -122.042641 103 23461ft 379kts
14-May-20 14:13 44.331856 -121.910057 103 25337ft 372kts
14-May-20 14:14 44.313462 -121.767086 103 27024ft 378kts
14-May-20 14:15 44.293625 -121.614467 102 27036ft 420kts
14-May-20 14:16 44.271303 -121.443615 102 27029ft 440kts
14-May-20 14:17 44.239215 -121.251751 114 27026ft 442kts
14-May-20 14:18 44.193432 -121.082870 114 27022ft 442kts
14-May-20 14:19 44.146684 -120.910938 113 27017ft 437kts
14-May-20 14:20 44.096880 -120.727993 113 27022ft 434kts
14-May-20 14:21 44.048281 -120.551237 113 27022ft 433kts
14-May-20 14:22 43.996701 -120.365156 113 27022ft 433kts
14-May-20 14:23 43.946119 -120.183903 114 27023ft 432kts
14-May-20 14:24 43.899022 -120.015963 115 27044ft 441kts
14-May-20 14:25 43.853727 -119.856322 114 27056ft 446kts
14-May-20 14:26 43.808227 -119.696665 114 27060ft 448kts
14-May-20 14:27 43.762099 -119.535869 114 27059ft 449kts
14-May-20 14:28 43.715865 -119.375554 114 27062ft 449kts
14-May-20 14:29 43.669471 -119.215778 115 27053ft 449kts
14-May-20 14:30 43.666791 -119.049442 74 27047ft 434kts
14-May-20 14:31 43.696954 -118.897832 72 27045ft 379kts
14-May-20 14:32 43.725767 -118.765445 72 27058ft 353kts
14-May-20 14:33 43.754979 -118.630325 72 27060ft 374kts
14-May-20 14:34 43.784876 -118.491342 72 27062ft 382kts
14-May-20 14:35 43.815388 -118.348310 73 27056ft 396kts
14-May-20 14:36 43.846597 -118.201197 73 26359ft 402kts
14-May-20 14:37 43.877368 -118.055095 73 24029ft 370kts
14-May-20 14:38 43.905898 -117.918494 73 24064ft 368kts
14-May-20 14:39 43.934229 -117.782002 73 24071ft 367kts
14-May-20 14:40 43.961310 -117.650890 73 21562ft 345kts
14-May-20 14:41 43.987055 -117.523962 79 18543ft 337kts
14-May-20 14:42 43.952970 -117.416204 119 15960ft 316kts
14-May-20 14:43 43.917825 -117.311967 116 13438ft 300kts
14-May-20 14:44 43.886093 -117.212995 115 11005ft 286kts
14-May-20 14:45 43.854797 -117.114872 116 8569ft 268kts
14-May-20 14:46 43.826965 -117.027873 116 8002ft 225kts
14-May-20 14:47 43.803050 -116.953746 117 8005ft 194kts
14-May-20 14:48 43.782024 -116.889070 118 8003ft 171kts
14-May-20 14:49 43.763847 -116.833611 118 8007ft 152kts
14-May-20 14:50 43.746063 -116.779006 117 7887ft 167kts
14-May-20 14:51 43.723536 -116.710773 111 6301ft 229kts
14-May-20 14:52 43.697445 -116.627780 111 5001ft 231kts
14-May-20 14:53 43.671728 -116.547513 111 5006ft 228kts
14-May-20 14:54 43.645762 -116.467043 111 5002ft 229kts
14-May-20 14:55 43.620088 -116.388924 114 4989ft 206kts
14-May-20 14:56 43.596380 -116.320043 114 4055ft 181kts
14-May-20 14:57 43.581139 -116.275316 114 3357ft 107kts
14-May-20 14:58 43.568275 -116.237573 114 2830ft 94kts
14-May-20 14:59 43.563262 -116.225638 214 2844ft 0kts
14-May-20 15:00 43.563514 -116.227396 293 2841ft 16kts
14-May-20 15:01 43.564360 -116.234469 263 2829ft 12kts
14-May-20 15:02 43.564152 -116.235333 181 2827ft 0kts
14-May-20 15:03 43.564152 -116.235333 181 2827ft 0kts

Navigation Log

Ident Type
Flight plan parsing failed, navigation log unavailable